Time;durP1;ratioP1;P1;durP2;ratioP2;P2;SDS_P1;SDS_P2;PMS_P1;PMS_P2;Temp;Humidity;BMP_temperature;BMP_pressure;BME280_temperature;BME280_humidity;BME280_pressure;Samples;Min_cycle;Max_cycle;Signal;HPM_P1;HPM_P2
2023/06/27 00:00:13;;;;;;;3.17;1.73;;;;;;;;;;5099792;28;20246;-59
2023/06/27 00:02:41;;;;;;;2.20;1.83;;;;;;;;;;5100034;28;20204;-60
2023/06/27 00:05:09;;;;;;;2.08;1.88;;;;;;;;;;5099370;28;20258;-60
2023/06/27 00:07:38;;;;;;;2.33;1.98;;;;;;;;;;5099621;28;20227;-59
2023/06/27 00:10:06;;;;;;;1.98;1.83;;;;;;;;;;5099534;28;20466;-59
2023/06/27 00:12:34;;;;;;;1.70;1.60;;;;;;;;;;5099477;28;20309;-59
2023/06/27 00:15:05;;;;;;;2.55;1.95;;;;;;;;;;5099279;28;20211;-59
2023/06/27 00:17:33;;;;;;;1.95;1.70;;;;;;;;;;5099260;28;20282;-60
2023/06/27 00:20:00;;;;;;;2.20;2.00;;;;;;;;;;5098753;28;20229;-60
2023/06/27 00:22:29;;;;;;;1.90;1.80;;;;;;;;;;5098833;28;20204;-59
2023/06/27 00:24:56;;;;;;;1.80;1.60;;;;;;;;;;5098832;28;20212;-59
2023/06/27 00:27:24;;;;;;;2.38;1.80;;;;;;;;;;5098615;28;20226;-59
2023/06/27 00:29:51;;;;;;;1.73;1.63;;;;;;;;;;5098982;28;20306;-60
2023/06/27 00:32:20;;;;;;;1.90;1.80;;;;;;;;;;5099070;28;20207;-59
2023/06/27 00:34:48;;;;;;;1.88;1.63;;;;;;;;;;5098969;28;20277;-59
2023/06/27 00:37:16;;;;;;;2.15;1.80;;;;;;;;;;5099077;28;20232;-59
2023/06/27 00:39:44;;;;;;;1.83;1.60;;;;;;;;;;5098701;28;20210;-59
2023/06/27 00:42:11;;;;;;;2.58;1.80;;;;;;;;;;5098940;28;20239;-59
2023/06/27 00:44:39;;;;;;;1.67;1.58;;;;;;;;;;5099014;28;20572;-59
2023/06/27 00:47:07;;;;;;;1.85;1.70;;;;;;;;;;5098960;28;20218;-59
2023/06/27 00:49:36;;;;;;;3.25;1.65;;;;;;;;;;5098742;28;20207;-60
2023/06/27 00:52:04;;;;;;;1.83;1.70;;;;;;;;;;5098623;28;20211;-59
2023/06/27 00:54:32;;;;;;;2.00;1.80;;;;;;;;;;5098819;28;20233;-59
2023/06/27 00:57:00;;;;;;;2.53;1.83;;;;;;;;;;5098496;28;20203;-59
2023/06/27 00:59:28;;;;;;;3.17;1.70;;;;;;;;;;5098864;28;20203;-59
2023/06/27 01:01:55;;;;;;;2.30;1.55;;;;;;;;;;5098863;28;20233;-59
2023/06/27 01:04:23;;;;;;;2.35;1.60;;;;;;;;;;5098817;28;20214;-60
2023/06/27 01:06:57;;;;;;;1.90;1.60;;;;;;;;;;5098748;28;20211;-60
2023/06/27 01:09:28;;;;;;;2.45;1.60;;;;;;;;;;5098383;28;20329;-60
2023/06/27 01:11:58;;;;;;;3.25;1.50;;;;;;;;;;5098368;28;20210;-59
2023/06/27 01:14:28;;;;;;;2.47;1.70;;;;;;;;;;5098531;28;20306;-59
2023/06/27 01:16:55;;;;;;;1.63;1.52;;;;;;;;;;5098601;28;20203;-59
2023/06/27 01:19:26;;;;;;;2.15;1.70;;;;;;;;;;5097917;28;20199;-59
2023/06/27 01:22:02;;;;;;;2.08;1.50;;;;;;;;;;5097884;28;20545;-59
2023/06/27 01:24:31;;;;;;;1.95;1.60;;;;;;;;;;5090867;28;20496;-59
2023/06/27 01:27:00;;;;;;;2.30;1.70;;;;;;;;;;5098265;28;20231;-59
2023/06/27 01:29:29;;;;;;;1.75;1.58;;;;;;;;;;5097536;28;20292;-59
2023/06/27 01:32:00;;;;;;;1.60;1.50;;;;;;;;;;5097653;28;20203;-59
2023/06/27 01:34:33;;;;;;;2.38;1.52;;;;;;;;;;5098092;28;20211;-59
2023/06/27 01:37:03;;;;;;;1.63;1.42;;;;;;;;;;5097698;28;20218;-59
2023/06/27 01:39:34;;;;;;;2.28;1.50;;;;;;;;;;5097734;28;20200;-60
2023/06/27 01:42:05;;;;;;;2.08;1.67;;;;;;;;;;5097861;28;20557;-59
2023/06/27 01:44:33;;;;;;;1.75;1.60;;;;;;;;;;5097853;28;20211;-60
2023/06/27 01:47:01;;;;;;;1.70;1.50;;;;;;;;;;5097489;28;20480;-59
2023/06/27 01:49:29;;;;;;;2.00;1.50;;;;;;;;;;5097953;28;20667;-59
2023/06/27 01:51:57;;;;;;;2.15;1.52;;;;;;;;;;5097562;28;20203;-59
2023/06/27 01:54:24;;;;;;;1.80;1.52;;;;;;;;;;5098068;28;20203;-60
2023/06/27 01:56:54;;;;;;;2.08;1.40;;;;;;;;;;5097595;28;20213;-59
2023/06/27 01:59:21;;;;;;;2.10;1.50;;;;;;;;;;5089116;28;20239;-59
2023/06/27 02:01:49;;;;;;;1.52;1.38;;;;;;;;;;5097485;28;20215;-59
2023/06/27 02:04:17;;;;;;;1.40;1.30;;;;;;;;;;5097727;28;20598;-60
2023/06/27 02:06:44;;;;;;;1.70;1.38;;;;;;;;;;5098079;28;20488;-60
2023/06/27 02:09:12;;;;;;;1.77;1.60;;;;;;;;;;5099095;28;20253;-59
2023/06/27 02:11:40;;;;;;;1.50;1.20;;;;;;;;;;5104699;28;20203;-59
2023/06/27 02:14:09;;;;;;;1.50;1.40;;;;;;;;;;5104529;28;20261;-59
2023/06/27 02:16:36;;;;;;;2.00;1.40;;;;;;;;;;5104438;28;20206;-59
2023/06/27 02:19:04;;;;;;;1.55;1.42;;;;;;;;;;5104365;28;20244;-60
2023/06/27 02:21:31;;;;;;;1.63;1.50;;;;;;;;;;5104223;28;20203;-59
2023/06/27 02:23:59;;;;;;;2.35;1.63;;;;;;;;;;5103837;28;20222;-59
2023/06/27 02:26:27;;;;;;;3.00;1.65;;;;;;;;;;5104138;28;20238;-59
2023/06/27 02:28:54;;;;;;;1.42;1.33;;;;;;;;;;5103894;28;20231;-59
2023/06/27 02:31:24;;;;;;;1.63;1.50;;;;;;;;;;5103792;28;20491;-59
2023/06/27 02:33:51;;;;;;;2.17;1.45;;;;;;;;;;5103861;28;20211;-59
2023/06/27 02:36:19;;;;;;;1.40;1.30;;;;;;;;;;5104227;28;20203;-59
2023/06/27 02:38:47;;;;;;;1.50;1.40;;;;;;;;;;5103981;28;20618;-60
2023/06/27 02:41:14;;;;;;;1.50;1.40;;;;;;;;;;5103928;28;20264;-59
2023/06/27 02:43:42;;;;;;;1.73;1.50;;;;;;;;;;5104054;28;20212;-59
2023/06/27 02:46:10;;;;;;;3.17;1.60;;;;;;;;;;5103958;28;20203;-59
2023/06/27 02:48:39;;;;;;;1.92;1.40;;;;;;;;;;5104084;28;20231;-60
2023/06/27 02:51:06;;;;;;;1.70;1.60;;;;;;;;;;5103504;28;20203;-59
2023/06/27 02:53:34;;;;;;;2.08;1.30;;;;;;;;;;5103706;28;20567;-59
2023/06/27 02:56:02;;;;;;;1.50;1.40;;;;;;;;;;5103343;28;20203;-59
2023/06/27 02:58:30;;;;;;;1.45;1.35;;;;;;;;;;5103438;28;20199;-59
2023/06/27 03:01:01;;;;;;;1.55;1.45;;;;;;;;;;5103787;28;20209;-59
2023/06/27 03:03:29;;;;;;;1.20;1.10;;;;;;;;;;5103838;28;20203;-59
2023/06/27 03:06:02;;;;;;;1.73;1.33;;;;;;;;;;5103647;28;20196;-59
2023/06/27 03:08:30;;;;;;;2.47;1.40;;;;;;;;;;5103253;28;20259;-59
2023/06/27 03:10:58;;;;;;;1.70;1.42;;;;;;;;;;5103359;28;20215;-60
2023/06/27 03:13:26;;;;;;;1.77;1.35;;;;;;;;;;5104011;28;20203;-60
2023/06/27 03:15:53;;;;;;;1.50;1.35;;;;;;;;;;5103948;28;20323;-59
2023/06/27 03:18:21;;;;;;;1.75;1.30;;;;;;;;;;5103339;28;20207;-59
2023/06/27 03:20:48;;;;;;;1.60;1.33;;;;;;;;;;5101181;28;20214;-59
2023/06/27 03:23:17;;;;;;;1.55;1.40;;;;;;;;;;5100352;28;20215;-60
2023/06/27 03:25:45;;;;;;;1.50;1.38;;;;;;;;;;5100164;28;20210;-60
2023/06/27 03:28:12;;;;;;;1.40;1.30;;;;;;;;;;5100207;28;20219;-60
2023/06/27 03:30:43;;;;;;;1.80;1.48;;;;;;;;;;5100134;28;20775;-60
2023/06/27 03:33:11;;;;;;;1.83;1.20;;;;;;;;;;5100736;28;20273;-59
2023/06/27 03:35:38;;;;;;;1.63;1.30;;;;;;;;;;5099371;28;20207;-59
2023/06/27 03:38:06;;;;;;;1.73;1.27;;;;;;;;;;5099615;28;20300;-59
2023/06/27 03:40:35;;;;;;;1.70;1.45;;;;;;;;;;5099835;28;20203;-60
2023/06/27 03:43:02;;;;;;;1.90;1.25;;;;;;;;;;5100059;28;20218;-59
2023/06/27 03:45:30;;;;;;;1.30;1.20;;;;;;;;;;5099552;28;20211;-59
2023/06/27 03:47:57;;;;;;;1.63;1.33;;;;;;;;;;5099800;28;20290;-59
2023/06/27 03:50:25;;;;;;;1.40;1.20;;;;;;;;;;5099431;28;20207;-59
2023/06/27 03:52:53;;;;;;;2.00;1.30;;;;;;;;;;5099583;28;20203;-59
2023/06/27 03:55:21;;;;;;;2.13;1.70;;;;;;;;;;5099443;28;20211;-60
2023/06/27 03:57:50;;;;;;;1.77;1.38;;;;;;;;;;5099152;28;20269;-59
2023/06/27 04:00:18;;;;;;;1.20;1.10;;;;;;;;;;5099246;28;20215;-59
2023/06/27 04:02:45;;;;;;;1.27;1.17;;;;;;;;;;5099158;28;20269;-59
2023/06/27 04:05:13;;;;;;;1.63;1.52;;;;;;;;;;5099323;28;20690;-59
2023/06/27 04:07:41;;;;;;;1.60;1.30;;;;;;;;;;5099326;28;20286;-59
2023/06/27 04:10:09;;;;;;;1.70;1.30;;;;;;;;;;5098872;28;20239;-59
2023/06/27 04:12:36;;;;;;;1.40;1.30;;;;;;;;;;5098504;28;20218;-59
2023/06/27 04:15:06;;;;;;;1.23;1.10;;;;;;;;;;5098985;28;20204;-59
2023/06/27 04:17:34;;;;;;;1.52;1.42;;;;;;;;;;5098669;28;20214;-59
2023/06/27 04:20:02;;;;;;;2.15;1.35;;;;;;;;;;5098597;28;20237;-59
2023/06/27 04:22:29;;;;;;;2.22;1.50;;;;;;;;;;5097845;28;20199;-59
2023/06/27 04:24:57;;;;;;;1.30;1.20;;;;;;;;;;5098229;28;20247;-59
2023/06/27 04:27:24;;;;;;;1.90;1.25;;;;;;;;;;5098478;28;20307;-59
2023/06/27 04:29:52;;;;;;;1.40;1.30;;;;;;;;;;5098470;28;20627;-59
2023/06/27 04:32:21;;;;;;;1.88;1.35;;;;;;;;;;5098070;28;20690;-59
2023/06/27 04:34:48;;;;;;;1.67;1.38;;;;;;;;;;5098742;28;20595;-59
2023/06/27 04:37:18;;;;;;;1.23;1.13;;;;;;;;;;5098228;28;20231;-59
2023/06/27 04:39:45;;;;;;;1.98;1.33;;;;;;;;;;5097203;28;20265;-59
2023/06/27 04:42:14;;;;;;;3.40;1.30;;;;;;;;;;5098162;28;20229;-59
2023/06/27 04:44:41;;;;;;;1.55;1.10;;;;;;;;;;5097219;28;20256;-59
2023/06/27 04:47:09;;;;;;;1.88;1.40;;;;;;;;;;5097526;28;20238;-59
2023/06/27 04:49:37;;;;;;;1.45;1.20;;;;;;;;;;5097563;28;20360;-60
2023/06/27 04:52:05;;;;;;;1.27;1.10;;;;;;;;;;5096676;28;20208;-60
2023/06/27 04:54:33;;;;;;;1.50;1.15;;;;;;;;;;5097375;28;20203;-60
2023/06/27 04:57:00;;;;;;;1.70;1.30;;;;;;;;;;5097091;28;20258;-60
2023/06/27 04:59:28;;;;;;;1.70;1.15;;;;;;;;;;5096243;28;20236;-59
2023/06/27 05:01:56;;;;;;;1.40;1.30;;;;;;;;;;5096521;28;20206;-59
2023/06/27 05:04:23;;;;;;;1.23;1.13;;;;;;;;;;5088554;28;20203;-59
2023/06/27 05:06:53;;;;;;;1.73;1.40;;;;;;;;;;5095727;28;20637;-60
2023/06/27 05:09:21;;;;;;;1.10;1.00;;;;;;;;;;5095676;28;20223;-59
2023/06/27 05:11:49;;;;;;;2.30;1.50;;;;;;;;;;5095201;28;20215;-59
2023/06/27 05:14:16;;;;;;;1.48;1.00;;;;;;;;;;5095210;28;20221;-59
2023/06/27 05:16:43;;;;;;;3.60;1.40;;;;;;;;;;5095963;28;20304;-59
2023/06/27 05:19:11;;;;;;;1.63;1.33;;;;;;;;;;5094740;28;20192;-59
2023/06/27 05:21:38;;;;;;;1.95;1.50;;;;;;;;;;5095118;28;20234;-59
2023/06/27 05:24:07;;;;;;;1.58;1.20;;;;;;;;;;5095767;28;20294;-59
2023/06/27 05:26:35;;;;;;;1.60;1.30;;;;;;;;;;5096053;28;20210;-59
2023/06/27 05:29:03;;;;;;;1.67;1.30;;;;;;;;;;5094851;28;20318;-59
2023/06/27 05:31:30;;;;;;;1.52;1.20;;;;;;;;;;5094938;28;20217;-59
2023/06/27 05:33:58;;;;;;;1.70;1.60;;;;;;;;;;5095494;28;20253;-59
2023/06/27 05:36:25;;;;;;;1.60;1.27;;;;;;;;;;5095517;28;20286;-59
2023/06/27 05:38:52;;;;;;;1.83;1.25;;;;;;;;;;5094913;28;20229;-59
2023/06/27 05:41:21;;;;;;;2.53;1.40;;;;;;;;;;5094508;28;20302;-60
2023/06/27 05:43:49;;;;;;;2.58;1.52;;;;;;;;;;5094781;28;20206;-59
2023/06/27 05:46:16;;;;;;;1.42;1.33;;;;;;;;;;5095458;28;20230;-59
2023/06/27 05:48:44;;;;;;;2.13;1.35;;;;;;;;;;5094532;28;20307;-59
2023/06/27 05:51:11;;;;;;;1.88;1.20;;;;;;;;;;5094758;28;20249;-59
2023/06/27 05:53:39;;;;;;;2.25;1.40;;;;;;;;;;5095182;28;20208;-60
2023/06/27 05:56:07;;;;;;;1.63;1.20;;;;;;;;;;5094589;28;20199;-60
2023/06/27 05:58:37;;;;;;;2.38;1.45;;;;;;;;;;5095273;28;20626;-59
2023/06/27 06:01:05;;;;;;;1.55;1.15;;;;;;;;;;5094197;28;20587;-59
2023/06/27 06:03:34;;;;;;;1.80;1.10;;;;;;;;;;5093753;28;20298;-59
2023/06/27 06:06:01;;;;;;;1.38;1.15;;;;;;;;;;5094352;28;20266;-59
2023/06/27 06:08:29;;;;;;;2.00;1.20;;;;;;;;;;5095040;28;20302;-60
2023/06/27 06:10:57;;;;;;;1.77;1.35;;;;;;;;;;5095454;28;20223;-59
2023/06/27 06:13:24;;;;;;;2.28;1.35;;;;;;;;;;5094943;28;20688;-59
2023/06/27 06:15:53;;;;;;;2.28;1.42;;;;;;;;;;5094391;28;20294;-60
2023/06/27 06:18:20;;;;;;;2.40;1.40;;;;;;;;;;5095170;28;20294;-59
2023/06/27 06:20:48;;;;;;;2.65;1.50;;;;;;;;;;5095145;28;20302;-59
2023/06/27 06:23:15;;;;;;;1.63;1.40;;;;;;;;;;5083650;28;20299;-59
2023/06/27 06:25:43;;;;;;;3.35;1.30;;;;;;;;;;5073349;28;20230;-60
2023/06/27 06:28:10;;;;;;;2.38;1.45;;;;;;;;;;5074437;28;20204;-60
2023/06/27 06:30:38;;;;;;;1.92;1.30;;;;;;;;;;5074489;28;20319;-60
2023/06/27 06:33:10;;;;;;;2.17;1.20;;;;;;;;;;5114463;28;20202;-59
2023/06/27 06:35:38;;;;;;;1.70;1.35;;;;;;;;;;5099404;28;20234;-60
2023/06/27 06:38:05;;;;;;;2.67;1.50;;;;;;;;;;5093298;28;20235;-59
2023/06/27 06:40:33;;;;;;;1.70;1.10;;;;;;;;;;5094283;28;20797;-59
2023/06/27 06:43:00;;;;;;;1.65;1.13;;;;;;;;;;5094315;28;20299;-59
2023/06/27 06:45:28;;;;;;;2.08;1.30;;;;;;;;;;5095005;28;20298;-59
2023/06/27 06:47:55;;;;;;;1.50;1.40;;;;;;;;;;5093080;28;20306;-59
2023/06/27 06:50:24;;;;;;;1.95;1.10;;;;;;;;;;5094663;28;20727;-60
2023/06/27 06:52:52;;;;;;;2.17;1.20;;;;;;;;;;5094530;28;20222;-60
2023/06/27 06:55:19;;;;;;;1.40;1.08;;;;;;;;;;5095533;28;20290;-59
2023/06/27 06:57:47;;;;;;;1.73;1.20;;;;;;;;;;5098204;28;20567;-59
2023/06/27 07:00:15;;;;;;;1.60;1.08;;;;;;;;;;5098209;28;20208;-59
2023/06/27 07:02:43;;;;;;;2.22;1.30;;;;;;;;;;5096584;28;20322;-59
2023/06/27 07:05:12;;;;;;;1.30;1.20;;;;;;;;;;5098189;28;20399;-59
2023/06/27 07:07:41;;;;;;;2.20;1.15;;;;;;;;;;5097629;28;20264;-59
2023/06/27 07:10:09;;;;;;;1.80;1.25;;;;;;;;;;5097463;28;20218;-59
2023/06/27 07:12:36;;;;;;;1.63;1.08;;;;;;;;;;5098443;28;20208;-59
2023/06/27 07:15:03;;;;;;;1.27;1.00;;;;;;;;;;5097734;28;20685;-60
2023/06/27 07:17:32;;;;;;;1.63;1.15;;;;;;;;;;5097684;28;20219;-59
2023/06/27 07:20:00;;;;;;;1.35;1.10;;;;;;;;;;5097733;28;20576;-60
2023/06/27 07:22:28;;;;;;;1.27;1.10;;;;;;;;;;5098420;28;20203;-59
2023/06/27 07:24:57;;;;;;;1.48;1.10;;;;;;;;;;5098415;28;20210;-59
2023/06/27 07:27:25;;;;;;;1.42;0.90;;;;;;;;;;5098212;28;20206;-59
2023/06/27 07:29:52;;;;;;;1.83;1.20;;;;;;;;;;5097994;28;20231;-59
2023/06/27 07:32:19;;;;;;;2.45;1.23;;;;;;;;;;5098507;28;20199;-59
2023/06/27 07:34:47;;;;;;;0.93;0.90;;;;;;;;;;5098339;28;20230;-60
2023/06/27 07:37:14;;;;;;;2.13;1.20;;;;;;;;;;5098184;28;20305;-60
2023/06/27 07:39:42;;;;;;;1.52;1.10;;;;;;;;;;5097558;28;20298;-59
2023/06/27 07:42:11;;;;;;;0.98;0.80;;;;;;;;;;5096958;28;20280;-59
2023/06/27 07:44:39;;;;;;;1.35;1.20;;;;;;;;;;5097844;28;20204;-59
2023/06/27 07:47:06;;;;;;;1.48;1.05;;;;;;;;;;5097228;28;20318;-59
2023/06/27 07:49:34;;;;;;;1.63;0.93;;;;;;;;;;5096817;28;20723;-59
2023/06/27 07:52:01;;;;;;;1.30;1.10;;;;;;;;;;5096056;28;20294;-59
2023/06/27 07:54:29;;;;;;;1.95;1.10;;;;;;;;;;5097080;28;20308;-59
2023/06/27 07:56:57;;;;;;;2.00;1.10;;;;;;;;;;5097286;28;20239;-59
2023/06/27 07:59:26;;;;;;;1.52;1.00;;;;;;;;;;5097040;28;20204;-59
2023/06/27 08:01:53;;;;;;;1.75;1.15;;;;;;;;;;5096804;28;20204;-59
2023/06/27 08:04:21;;;;;;;1.52;1.10;;;;;;;;;;5096650;28;20203;-60
2023/06/27 08:06:48;;;;;;;1.35;0.90;;;;;;;;;;5097365;28;20232;-59
2023/06/27 08:09:15;;;;;;;1.70;1.10;;;;;;;;;;5097139;28;20214;-59
2023/06/27 08:11:43;;;;;;;1.27;1.15;;;;;;;;;;5096033;28;20496;-59
2023/06/27 08:14:11;;;;;;;1.70;1.10;;;;;;;;;;5096911;28;20290;-59
2023/06/27 08:16:39;;;;;;;1.52;0.90;;;;;;;;;;5096991;28;20390;-59
2023/06/27 08:19:07;;;;;;;0.95;0.75;;;;;;;;;;5096429;28;20230;-59
2023/06/27 08:21:35;;;;;;;1.95;1.40;;;;;;;;;;5096382;28;20223;-59
2023/06/27 08:24:03;;;;;;;1.60;1.00;;;;;;;;;;5088151;28;20287;-59
2023/06/27 08:26:30;;;;;;;2.22;1.27;;;;;;;;;;5075802;28;20496;-59
2023/06/27 08:28:58;;;;;;;1.60;1.20;;;;;;;;;;5076705;28;20269;-59
2023/06/27 08:31:25;;;;;;;1.33;1.23;;;;;;;;;;5076480;28;20603;-59
2023/06/27 08:33:54;;;;;;;1.88;1.20;;;;;;;;;;5076255;28;20710;-59
2023/06/27 08:36:21;;;;;;;2.45;1.10;;;;;;;;;;5067596;28;20251;-59
2023/06/27 08:38:49;;;;;;;1.88;1.10;;;;;;;;;;5075134;28;20247;-59
2023/06/27 08:41:17;;;;;;;2.70;1.05;;;;;;;;;;5075968;28;20219;-59
2023/06/27 08:43:44;;;;;;;1.40;1.00;;;;;;;;;;5076336;28;20302;-59
2023/06/27 08:46:12;;;;;;;1.48;0.93;;;;;;;;;;5075969;28;20212;-59
2023/06/27 08:48:41;;;;;;;1.60;1.10;;;;;;;;;;5076407;28;20200;-59
2023/06/27 08:51:13;;;;;;;1.02;0.90;;;;;;;;;;5075744;28;20228;-60
2023/06/27 08:53:44;;;;;;;1.63;1.15;;;;;;;;;;5075876;28;20215;-59
2023/06/27 08:56:12;;;;;;;1.45;1.02;;;;;;;;;;5076047;28;20251;-59
2023/06/27 08:58:47;;;;;;;1.02;0.82;;;;;;;;;;5075944;28;20212;-59
2023/06/27 09:01:15;;;;;;;2.42;1.30;;;;;;;;;;5075967;28;20200;-59
2023/06/27 09:03:42;;;;;;;1.30;1.08;;;;;;;;;;5075958;28;20323;-59
2023/06/27 09:06:13;;;;;;;1.30;0.90;;;;;;;;;;5075685;28;20677;-59
2023/06/27 09:08:41;;;;;;;1.65;1.00;;;;;;;;;;5075522;28;20204;-59
2023/06/27 09:11:09;;;;;;;1.70;1.05;;;;;;;;;;5074634;28;20690;-59
2023/06/27 09:13:38;;;;;;;1.45;1.00;;;;;;;;;;5075561;28;20473;-59
2023/06/27 09:16:05;;;;;;;1.50;1.10;;;;;;;;;;5074859;28;20729;-59
2023/06/27 09:18:33;;;;;;;1.17;1.00;;;;;;;;;;5073988;28;20650;-59
2023/06/27 09:21:00;;;;;;;1.50;0.90;;;;;;;;;;5074368;28;20200;-59
2023/06/27 09:23:31;;;;;;;1.10;1.00;;;;;;;;;;5075055;28;20708;-59
2023/06/27 09:26:08;;;;;;;1.20;1.10;;;;;;;;;;5075561;28;20234;-59
2023/06/27 09:28:45;;;;;;;1.63;1.00;;;;;;;;;;5074667;28;20215;-59
2023/06/27 09:31:13;;;;;;;1.75;1.00;;;;;;;;;;5074793;28;20231;-59
2023/06/27 09:33:41;;;;;;;1.63;0.90;;;;;;;;;;5074423;28;20572;-59
2023/06/27 09:36:09;;;;;;;1.88;1.10;;;;;;;;;;5074437;28;20211;-59
2023/06/27 09:38:37;;;;;;;1.95;1.10;;;;;;;;;;5074802;28;20239;-59
2023/06/27 09:41:05;;;;;;;1.98;1.20;;;;;;;;;;5075729;28;20200;-59
2023/06/27 09:43:35;;;;;;;1.48;1.10;;;;;;;;;;5075723;28;20287;-59
2023/06/27 09:46:03;;;;;;;1.55;1.17;;;;;;;;;;5074984;28;20671;-59
2023/06/27 09:48:30;;;;;;;1.00;0.90;;;;;;;;;;5074024;28;20295;-59
2023/06/27 09:51:01;;;;;;;1.17;1.08;;;;;;;;;;5074263;28;20220;-59
2023/06/27 09:53:29;;;;;;;3.55;1.38;;;;;;;;;;5074732;28;20690;-60
2023/06/27 09:55:59;;;;;;;1.17;0.98;;;;;;;;;;5073941;28;20203;-59
2023/06/27 09:58:28;;;;;;;2.88;1.25;;;;;;;;;;5074443;28;20549;-59
2023/06/27 10:00:55;;;;;;;1.70;1.30;;;;;;;;;;5074158;28;20607;-59
2023/06/27 10:03:24;;;;;;;2.00;1.20;;;;;;;;;;5074174;28;20203;-59
2023/06/27 10:05:51;;;;;;;1.20;1.10;;;;;;;;;;5073758;28;20279;-60
2023/06/27 10:08:19;;;;;;;3.38;1.23;;;;;;;;;;5074489;28;20214;-60
2023/06/27 10:10:46;;;;;;;2.22;1.40;;;;;;;;;;5073489;28;20320;-60
2023/06/27 10:13:15;;;;;;;1.33;1.05;;;;;;;;;;5073083;28;20526;-60
2023/06/27 10:15:42;;;;;;;2.97;1.50;;;;;;;;;;5073607;28;20641;-60
2023/06/27 10:18:10;;;;;;;1.45;1.05;;;;;;;;;;5074216;28;20331;-59
2023/06/27 10:20:39;;;;;;;2.35;1.38;;;;;;;;;;5073758;28;20278;-59
2023/06/27 10:23:07;;;;;;;2.63;1.40;;;;;;;;;;5072677;28;20618;-59
2023/06/27 10:25:34;;;;;;;4.25;1.27;;;;;;;;;;5074035;28;20204;-59
2023/06/27 10:28:09;;;;;;;3.40;1.40;;;;;;;;;;5081587;28;20292;-60
2023/06/27 10:30:45;;;;;;;2.00;1.30;;;;;;;;;;5094203;28;20218;-59
2023/06/27 10:33:21;;;;;;;1.33;1.02;;;;;;;;;;5097548;28;20609;-59
2023/06/27 10:35:53;;;;;;;2.42;1.20;;;;;;;;;;5097127;28;20594;-59
2023/06/27 10:38:21;;;;;;;1.13;1.00;;;;;;;;;;5097429;28;20808;-59
2023/06/27 10:41:07;;;;;;;2.42;1.50;;;;;;;;;;5097085;28;20192;-59
2023/06/27 10:43:38;;;;;;;1.83;1.30;;;;;;;;;;5097556;28;20314;-59
2023/06/27 10:46:07;;;;;;;2.25;1.25;;;;;;;;;;5097285;28;20230;-59
2023/06/27 10:48:36;;;;;;;2.85;1.30;;;;;;;;;;5097151;28;20214;-59
2023/06/27 10:51:08;;;;;;;1.73;1.20;;;;;;;;;;5096764;28;20732;-60
2023/06/27 10:53:35;;;;;;;1.17;1.00;;;;;;;;;;5096544;28;20210;-59
2023/06/27 10:56:15;;;;;;;1.50;1.15;;;;;;;;;;5097785;28;20654;-59
2023/06/27 10:58:46;;;;;;;2.75;1.17;;;;;;;;;;5097247;28;20289;-59
2023/06/27 11:01:21;;;;;;;1.90;0.90;;;;;;;;;;5096887;28;20294;-59
2023/06/27 11:03:57;;;;;;;1.80;1.10;;;;;;;;;;5096886;28;20530;-59
2023/06/27 11:06:25;;;;;;;1.17;1.08;;;;;;;;;;5097988;28;20575;-60
2023/06/27 11:08:56;;;;;;;1.80;1.10;;;;;;;;;;5097018;28;20286;-59
2023/06/27 11:11:29;;;;;;;2.78;1.17;;;;;;;;;;5096973;28;20250;-60
2023/06/27 11:14:05;;;;;;;1.05;0.93;;;;;;;;;;5097628;28;20204;-59
2023/06/27 11:16:34;;;;;;;1.38;1.20;;;;;;;;;;5090546;28;20523;-59
2023/06/27 11:19:02;;;;;;;1.80;1.23;;;;;;;;;;5097660;28;20203;-59
2023/06/27 11:21:30;;;;;;;1.73;1.00;;;;;;;;;;5097253;28;20200;-60
2023/06/27 11:23:58;;;;;;;1.05;1.00;;;;;;;;;;5097654;28;20195;-59
2023/06/27 11:26:26;;;;;;;1.60;1.20;;;;;;;;;;5097318;28;20740;-59
2023/06/27 11:28:53;;;;;;;1.10;1.00;;;;;;;;;;5097700;28;20318;-59
2023/06/27 11:31:20;;;;;;;1.20;1.10;;;;;;;;;;5097778;28;20314;-59
2023/06/27 11:33:58;;;;;;;1.95;1.38;;;;;;;;;;5097496;28;20299;-60
2023/06/27 11:36:25;;;;;;;2.50;1.08;;;;;;;;;;5096165;28;20575;-60
2023/06/27 11:38:53;;;;;;;3.03;1.10;;;;;;;;;;5096192;28;20304;-59
2023/06/27 11:41:21;;;;;;;1.58;1.35;;;;;;;;;;5095789;28;20200;-59
2023/06/27 11:43:48;;;;;;;1.63;1.20;;;;;;;;;;5094223;28;20202;-59
2023/06/27 11:46:19;;;;;;;1.50;1.30;;;;;;;;;;5095874;28;20290;-59
2023/06/27 11:48:47;;;;;;;1.33;1.08;;;;;;;;;;5096624;28;20469;-59
2023/06/27 11:51:16;;;;;;;1.30;1.20;;;;;;;;;;5095628;28;20223;-60
2023/06/27 11:53:49;;;;;;;1.30;1.20;;;;;;;;;;5095910;28;20303;-60
2023/06/27 11:56:16;;;;;;;1.63;1.30;;;;;;;;;;5095839;28;20196;-59
2023/06/27 11:58:46;;;;;;;1.67;1.20;;;;;;;;;;5095778;28;20239;-60
2023/06/27 12:01:15;;;;;;;1.52;1.42;;;;;;;;;;5096652;28;20202;-59
2023/06/27 12:03:47;;;;;;;1.33;1.13;;;;;;;;;;5096225;28;20203;-60
2023/06/27 12:06:26;;;;;;;2.00;1.30;;;;;;;;;;5095752;28;20207;-60
2023/06/27 12:08:53;;;;;;;1.45;1.20;;;;;;;;;;5096502;28;20200;-59
2023/06/27 12:11:26;;;;;;;1.75;1.30;;;;;;;;;;5096543;28;20648;-59
2023/06/27 12:13:54;;;;;;;1.55;1.40;;;;;;;;;;5095062;28;20295;-59
2023/06/27 12:16:27;;;;;;;1.88;1.50;;;;;;;;;;5096578;28;20204;-59
2023/06/27 12:18:54;;;;;;;2.45;1.40;;;;;;;;;;5096681;28;20203;-59
2023/06/27 12:21:22;;;;;;;1.10;1.00;;;;;;;;;;5095503;28;20198;-59
2023/06/27 12:23:51;;;;;;;2.55;1.45;;;;;;;;;;5095663;28;20273;-59
2023/06/27 12:26:19;;;;;;;2.67;1.40;;;;;;;;;;5095296;28;20203;-59
2023/06/27 12:28:56;;;;;;;3.05;1.65;;;;;;;;;;5095376;28;20598;-59
2023/06/27 12:31:24;;;;;;;3.05;1.25;;;;;;;;;;5087086;28;20231;-59
2023/06/27 12:33:52;;;;;;;1.92;1.23;;;;;;;;;;5094813;28;20293;-59
2023/06/27 12:36:19;;;;;;;2.13;1.20;;;;;;;;;;5094932;28;20727;-60
2023/06/27 12:38:47;;;;;;;1.40;1.30;;;;;;;;;;5094985;28;20245;-59
2023/06/27 12:41:18;;;;;;;1.88;1.23;;;;;;;;;;5094931;28;20295;-59
2023/06/27 12:43:46;;;;;;;1.98;1.25;;;;;;;;;;5095006;28;20204;-59
2023/06/27 12:46:14;;;;;;;1.35;1.23;;;;;;;;;;5094423;28;20204;-59
2023/06/27 12:48:41;;;;;;;1.90;1.30;;;;;;;;;;5093982;28;20226;-60
2023/06/27 12:51:09;;;;;;;1.27;1.17;;;;;;;;;;5095174;28;20318;-59
2023/06/27 12:53:36;;;;;;;1.58;1.33;;;;;;;;;;5094765;28;20298;-59
2023/06/27 12:56:04;;;;;;;1.63;1.48;;;;;;;;;;5095021;28;20269;-59
2023/06/27 12:58:33;;;;;;;1.38;1.20;;;;;;;;;;5093716;28;20203;-59
2023/06/27 13:01:01;;;;;;;1.60;1.38;;;;;;;;;;5094455;28;20196;-59
2023/06/27 13:03:29;;;;;;;1.95;1.10;;;;;;;;;;5094731;28;20211;-59
2023/06/27 13:05:56;;;;;;;2.92;1.40;;;;;;;;;;5094344;28;20290;-59
2023/06/27 13:08:24;;;;;;;2.65;1.60;;;;;;;;;;5094631;28;20291;-59
2023/06/27 13:10:52;;;;;;;1.67;1.30;;;;;;;;;;5093817;28;20811;-59
2023/06/27 13:13:20;;;;;;;1.73;1.30;;;;;;;;;;5094245;28;20305;-60
2023/06/27 13:15:49;;;;;;;2.70;1.40;;;;;;;;;;5093948;28;20231;-59
2023/06/27 13:18:16;;;;;;;1.52;1.42;;;;;;;;;;5094934;28;20290;-59
2023/06/27 13:20:45;;;;;;;2.30;1.35;;;;;;;;;;5094427;28;20207;-59
2023/06/27 13:23:13;;;;;;;1.98;1.73;;;;;;;;;;5094697;28;20227;-59
2023/06/27 13:25:41;;;;;;;1.60;1.50;;;;;;;;;;5093799;28;20199;-60
2023/06/27 13:28:09;;;;;;;2.53;1.30;;;;;;;;;;5094112;28;20477;-59
2023/06/27 13:30:36;;;;;;;1.67;1.30;;;;;;;;;;5093537;28;20310;-60
2023/06/27 13:33:05;;;;;;;1.70;1.20;;;;;;;;;;5094199;28;20314;-59
2023/06/27 13:35:33;;;;;;;1.40;1.30;;;;;;;;;;5094190;28;20571;-59
2023/06/27 13:38:02;;;;;;;1.35;1.25;;;;;;;;;;5093998;28;20755;-59
2023/06/27 13:40:30;;;;;;;1.48;1.38;;;;;;;;;;5094356;28;20206;-60
2023/06/27 13:42:57;;;;;;;1.60;1.30;;;;;;;;;;5093997;28;20200;-59
2023/06/27 13:45:25;;;;;;;2.60;1.55;;;;;;;;;;5093835;28;20210;-59
2023/06/27 13:47:52;;;;;;;1.80;1.50;;;;;;;;;;5094393;28;20207;-59
2023/06/27 13:50:21;;;;;;;1.55;1.25;;;;;;;;;;5094291;28;20366;-59
2023/06/27 13:52:49;;;;;;;2.03;1.40;;;;;;;;;;5093488;28;20318;-59
2023/06/27 13:55:16;;;;;;;1.73;1.63;;;;;;;;;;5093481;28;20291;-60
2023/06/27 13:57:43;;;;;;;1.58;1.40;;;;;;;;;;5093961;28;20204;-59
2023/06/27 14:00:11;;;;;;;2.75;1.40;;;;;;;;;;5095246;28;20298;-59
2023/06/27 14:02:39;;;;;;;1.42;1.33;;;;;;;;;;5093284;28;20202;-59
2023/06/27 14:05:07;;;;;;;1.40;1.30;;;;;;;;;;5093581;28;20203;-59
2023/06/27 14:07:35;;;;;;;1.42;1.33;;;;;;;;;;5093953;28;20645;-59
2023/06/27 14:10:03;;;;;;;1.60;1.38;;;;;;;;;;5093807;28;20264;-59
2023/06/27 14:12:31;;;;;;;1.48;1.30;;;;;;;;;;5092438;28;20334;-59
2023/06/27 14:14:58;;;;;;;1.77;1.20;;;;;;;;;;5092532;28;20576;-59
2023/06/27 14:17:25;;;;;;;1.55;1.40;;;;;;;;;;5093252;28;20287;-59
2023/06/27 14:19:53;;;;;;;1.40;1.30;;;;;;;;;;5092247;28;20294;-60
2023/06/27 14:22:20;;;;;;;1.40;1.25;;;;;;;;;;5093068;28;20269;-60
2023/06/27 14:24:49;;;;;;;2.10;1.40;;;;;;;;;;5092476;28;20200;-60
2023/06/27 14:27:17;;;;;;;1.67;1.33;;;;;;;;;;5093138;28;20238;-60
2023/06/27 14:29:45;;;;;;;1.88;1.50;;;;;;;;;;5093684;28;20210;-59
2023/06/27 14:32:12;;;;;;;1.40;1.30;;;;;;;;;;5093637;28;20223;-59
2023/06/27 14:34:39;;;;;;;1.55;1.25;;;;;;;;;;5093954;28;20238;-59
2023/06/27 14:37:07;;;;;;;1.42;1.30;;;;;;;;;;5093689;28;20206;-59
2023/06/27 14:39:35;;;;;;;2.67;1.40;;;;;;;;;;5093694;28;20302;-59
2023/06/27 14:42:03;;;;;;;1.83;1.30;;;;;;;;;;5093958;28;20546;-60
2023/06/27 14:44:31;;;;;;;1.60;1.33;;;;;;;;;;5093655;28;20213;-59
2023/06/27 14:46:58;;;;;;;1.65;1.40;;;;;;;;;;5092906;28;20598;-59
2023/06/27 14:49:26;;;;;;;1.40;1.30;;;;;;;;;;5093138;28;20444;-59